Date,TemperatureHighF,TemperatureAvgF,TemperatureLowF,DewpointHighF,DewpointAvgF,DewpointLowF,HumidityHigh,HumidityAvg,HumidityLow,PressureMaxIn,PressureMinIn,WindSpeedMaxMPH,WindSpeedAvgMPH,GustSpeedMaxMPH,PrecipitationSumIn
2013-5-1,65.3,49.6,31.1,42.7,35.9,28.6,92,63,37,29.93,29.77,8,2,8,0.00
2013-5-2,70.2,53.7,38.1,48.2,40.9,35.3,90,65,40,29.91,29.73,10,2,10,0.00
2013-5-3,72.1,56.3,38.7,51.7,44.6,36.5,94,68,42,29.76,29.59,10,2,10,0.00
2013-5-4,77.7,61.1,42.8,53.3,46.1,38.6,93,62,34,29.61,29.37,12,3,12,0.00
2013-5-5,83.5,65.3,45.0,57.1,48.6,40.9,88,58,34,29.38,29.13,8,2,8,0.00
2013-5-6,87.3,67.9,48.7,54.2,48.7,43.3,83,55,27,29.22,29.12,7,2,7,0.00
2013-5-7,58.3,51.7,48.0,51.3,47.3,44.6,92,85,75,29.33,29.18,4,1,4,0.00
2013-5-8,73.8,55.0,46.0,57.6,49.9,44.1,97,84,55,29.58,29.45,3,0,5,0.00
2013-5-9,79.2,58.8,44.6,59.6,50.6,43.2,96,76,49,29.56,29.48,3,0,6,0.00
2013-5-10,79.2,63.5,50.5,60.7,52.3,47.4,91,69,46,29.54,29.45,3,0,5,0.00
2013-5-11,84.6,64.4,55.4,60.3,54.7,48.8,96,73,40,29.45,29.35,3,0,10,0.22
2013-5-12,71.2,62.2,56.8,61.7,55.1,52.7,89,78,59,29.44,29.28,2,0,7,0.22
2013-5-13,66.0,54.1,46.2,54.6,48.3,44.5,95,82,56,29.55,29.27,18,2,18,0.38
2013-5-14,70.7,55.1,45.1,49.1,44.3,39.5,96,70,36,29.58,29.48,7,1,7,0.38
2013-5-15,74.8,55.8,43.0,49.9,45.5,40.0,93,72,36,29.48,29.36,6,1,6,0.08
2013-5-16,72.0,59.2,50.9,59.1,52.4,48.5,96,80,56,29.38,29.23,8,2,8,0.13
2013-5-17,64.0,56.1,52.2,53.8,50.5,45.1,94,82,67,29.74,29.29,7,2,7,0.07
2013-5-18,64.8,56.4,51.6,50.6,47.8,44.4,88,73,51,29.64,29.40,7,2,7,0.01
2013-5-19,69.4,55.5,48.7,55.4,49.3,45.0,94,81,54,29.77,29.63,8,1,8,0.08
2013-5-20,72.5,55.3,42.1,55.3,47.4,40.5,95,77,50,29.72,29.27,9,2,9,0.00
2013-5-21,53.2,49.0,46.2,50.4,46.7,44.7,95,92,82,29.70,29.14,7,1,7,0.14
2013-5-22,52.9,48.0,44.4,48.3,45.6,43.0,96,91,81,29.29,29.20,8,1,8,0.05
2013-5-23,67.1,49.8,41.2,51.3,45.0,40.1,98,85,51,29.37,29.28,8,1,8,0.01
2013-5-24,65.1,53.3,40.8,50.8,45.1,39.5,97,76,52,29.40,29.33,6,1,6,0.01
2013-5-25,70.3,56.7,48.7,52.3,47.6,45.1,94,74,45,29.40,29.34,7,2,7,0.07
2013-5-26,68.9,55.7,49.3,57.4,50.9,44.7,94,84,70,29.42,29.30,7,1,7,0.01
2013-5-27,62.4,56.3,50.5,55.0,52.2,48.3,94,87,71,29.31,29.07,9,2,9,0.14
2013-5-28,66.7,57.3,51.4,53.7,50.3,47.9,92,78,56,29.57,29.12,9,4,9,0.02
2013-5-29,66.9,52.1,49.3,52.3,49.1,40.8,96,90,52,29.47,29.02,4,1,4,0.26
2013-5-30,68.5,52.8,47.5,55.9,49.5,46.4,97,89,64,29.60,29.25,7,1,6,0.02
2013-5-31,70.3,57.1,47.7,54.3,48.8,43.1,97,76,46,29.70,29.60,6,2,6,0.14